createdAt,value
2022-09-30T00:01:07.153Z,81.67
2022-09-30T00:03:33.858Z,81.49
2022-09-30T00:06:07.894Z,81.62
2022-09-30T00:08:36.595Z,81.58
2022-09-30T00:11:06.331Z,81.63
2022-09-30T00:13:35.533Z,82.08
2022-09-30T00:16:02.581Z,81.92
2022-09-30T00:18:29.829Z,82.03
2022-09-30T00:20:56.891Z,81.76
2022-09-30T00:23:24.735Z,81.60
2022-09-30T00:25:51.883Z,81.65
2022-09-30T00:28:18.548Z,81.81
2022-09-30T00:30:45.345Z,81.88
2022-09-30T00:33:11.989Z,81.44
2022-09-30T00:35:38.617Z,81.44
2022-09-30T00:38:05.306Z,81.16
2022-09-30T00:40:32.030Z,80.95
2022-09-30T00:43:00.110Z,81.09
2022-09-30T00:45:27.900Z,81.26
2022-09-30T00:48:05.675Z,81.18
2022-09-30T00:50:47.111Z,80.95
2022-09-30T00:53:21.787Z,80.45
2022-09-30T00:55:55.758Z,80.62
2022-09-30T00:58:31.836Z,80.38
2022-09-30T01:01:01.777Z,80.71
2022-09-30T01:03:31.729Z,81.33
2022-09-30T01:05:58.426Z,81.09
2022-09-30T01:08:25.943Z,81.34
2022-09-30T01:10:52.608Z,81.12
2022-09-30T01:13:20.407Z,81.39
2022-09-30T01:15:50.696Z,81.18
2022-09-30T01:18:38.849Z,80.64
2022-09-30T01:21:50.053Z,80.31
2022-09-30T01:24:54.923Z,80.35
2022-09-30T01:27:33.490Z,80.59
2022-09-30T01:30:07.720Z,80.74
2022-09-30T01:32:53.498Z,80.62
2022-09-30T01:35:41.733Z,81.12
2022-09-30T01:38:25.186Z,81.30
2022-09-30T01:41:04.971Z,80.83
2022-09-30T01:43:34.610Z,80.51
2022-09-30T01:46:10.446Z,80.35
2022-09-30T01:48:57.039Z,80.12
2022-09-30T01:51:34.620Z,79.78
2022-09-30T01:54:07.224Z,80.03
2022-09-30T01:56:48.009Z,79.94
2022-09-30T01:59:25.778Z,79.98
2022-09-30T02:01:57.498Z,79.90
2022-09-30T02:04:32.255Z,80.48
2022-09-30T02:07:03.544Z,80.66
2022-09-30T02:09:39.282Z,81.64
2022-09-30T02:12:09.576Z,82.01
2022-09-30T02:14:43.078Z,81.95
2022-09-30T02:17:34.096Z,82.24
2022-09-30T02:20:04.785Z,82.08
2022-09-30T02:22:40.806Z,82.38
2022-09-30T02:25:09.915Z,82.04
2022-09-30T02:27:42.504Z,81.80
2022-09-30T02:30:10.430Z,82.28
2022-09-30T02:33:00.130Z,81.90
2022-09-30T02:35:50.543Z,81.97
2022-09-30T02:38:41.692Z,81.78
2022-09-30T02:41:37.858Z,82.00
2022-09-30T02:44:04.922Z,81.57
2022-09-30T02:46:35.330Z,81.52
2022-09-30T02:49:08.332Z,81.30
2022-09-30T02:51:39.850Z,81.37
2022-09-30T02:54:14.844Z,81.21
2022-09-30T02:57:00.245Z,81.41
2022-09-30T02:59:27.589Z,81.21
2022-09-30T03:01:54.532Z,81.24
2022-09-30T03:04:23.526Z,81.45
2022-09-30T03:06:50.652Z,82.28
2022-09-30T03:09:17.492Z,81.87
2022-09-30T03:11:45.027Z,81.29
2022-09-30T03:14:32.675Z,81.77
2022-09-30T03:17:29.425Z,81.68
2022-09-30T03:20:14.753Z,81.65
2022-09-30T03:23:09.801Z,81.55
2022-09-30T03:25:45.512Z,81.35
2022-09-30T03:28:20.981Z,81.73
2022-09-30T03:30:56.089Z,81.56
2022-09-30T03:33:26.019Z,81.59
2022-09-30T03:36:20.696Z,81.82
2022-09-30T03:38:49.630Z,81.77
2022-09-30T03:41:31.466Z,82.01
2022-09-30T03:44:03.442Z,81.79
2022-09-30T03:46:43.670Z,82.15
2022-09-30T03:49:15.186Z,81.98
2022-09-30T03:51:42.436Z,81.77
2022-09-30T03:54:11.318Z,81.59
2022-09-30T03:56:42.548Z,81.52
2022-09-30T03:59:15.483Z,81.60
2022-09-30T04:01:42.414Z,81.51
2022-09-30T04:04:09.170Z,81.50
2022-09-30T04:06:35.873Z,81.44
2022-09-30T04:09:02.610Z,81.60
2022-09-30T04:11:29.408Z,82.34
2022-09-30T04:13:56.439Z,81.74
2022-09-30T04:16:23.371Z,81.46
2022-09-30T04:18:50.907Z,81.36
2022-09-30T04:21:17.583Z,81.72
2022-09-30T04:23:44.366Z,82.35
2022-09-30T04:26:16.787Z,82.75
2022-09-30T04:28:43.982Z,82.91
2022-09-30T04:31:12.039Z,82.77
2022-09-30T04:33:39.284Z,82.94
2022-09-30T04:36:06.731Z,82.74
2022-09-30T04:38:34.262Z,82.38
2022-09-30T04:41:04.057Z,82.37
2022-09-30T04:43:30.897Z,82.38
2022-09-30T04:46:03.801Z,83.14
2022-09-30T04:48:31.460Z,83.30
2022-09-30T04:51:01.849Z,83.22
2022-09-30T04:53:40.033Z,82.67
2022-09-30T04:56:11.841Z,82.66
2022-09-30T04:58:39.028Z,82.76
2022-09-30T05:01:09.863Z,83.62
2022-09-30T05:03:37.110Z,83.31
2022-09-30T05:06:04.377Z,83.27
2022-09-30T05:08:33.852Z,83.40
2022-09-30T05:11:05.942Z,82.96
2022-09-30T05:13:35.190Z,82.82
2022-09-30T05:16:02.325Z,82.67
2022-09-30T05:18:29.211Z,82.67
2022-09-30T05:20:57.619Z,83.50
2022-09-30T05:23:25.643Z,83.68
2022-09-30T05:25:52.800Z,83.59
2022-09-30T05:28:20.095Z,83.50
2022-09-30T05:30:47.041Z,83.43
2022-09-30T05:33:14.273Z,83.92
2022-09-30T05:35:42.119Z,84.19
2022-09-30T05:38:10.104Z,84.69
2022-09-30T05:40:40.405Z,84.67
2022-09-30T05:43:07.712Z,84.28
2022-09-30T05:45:34.655Z,84.13
2022-09-30T05:48:01.941Z,84.29
2022-09-30T05:50:28.666Z,84.84
2022-09-30T05:52:55.499Z,84.48
2022-09-30T05:55:25.023Z,84.45
2022-09-30T05:57:52.694Z,84.28
2022-09-30T06:00:20.031Z,83.84
2022-09-30T06:02:47.404Z,83.56
2022-09-30T06:05:14.127Z,83.18
2022-09-30T06:07:40.810Z,83.25
2022-09-30T06:10:12.276Z,83.12
2022-09-30T06:12:39.475Z,83.03
2022-09-30T06:15:07.009Z,83.05
2022-09-30T06:17:33.996Z,83.05
2022-09-30T06:20:01.150Z,83.95
2022-09-30T06:22:27.789Z,83.49
2022-09-30T06:24:55.427Z,83.58
2022-09-30T06:27:22.324Z,83.55
2022-09-30T06:29:49.440Z,83.60
2022-09-30T06:32:16.097Z,83.38
2022-09-30T06:34:42.739Z,83.48
2022-09-30T06:37:09.303Z,83.63
2022-09-30T06:39:35.975Z,82.88
2022-09-30T06:42:03.059Z,82.84
2022-09-30T06:44:30.914Z,82.83
2022-09-30T06:46:59.855Z,83.54
2022-09-30T06:49:32.443Z,83.17
2022-09-30T06:52:04.217Z,83.21
2022-09-30T06:54:30.854Z,83.30
2022-09-30T06:56:57.887Z,83.25
2022-09-30T06:59:24.845Z,82.61
2022-09-30T07:01:51.702Z,81.86
2022-09-30T07:04:18.358Z,81.53
2022-09-30T07:06:46.159Z,81.19
2022-09-30T07:09:13.085Z,81.18
2022-09-30T07:11:40.064Z,80.87
2022-09-30T07:14:07.879Z,80.94
2022-09-30T07:16:34.616Z,80.97
2022-09-30T07:19:02.340Z,80.54
2022-09-30T07:21:30.301Z,80.55
2022-09-30T07:23:58.962Z,80.94
2022-09-30T07:26:27.671Z,81.01
2022-09-30T07:28:54.419Z,81.16
2022-09-30T07:31:33.638Z,80.74
2022-09-30T07:34:02.718Z,79.75
2022-09-30T07:36:34.205Z,79.46
2022-09-30T07:39:06.020Z,79.24
2022-09-30T07:41:34.620Z,78.79
2022-09-30T07:44:01.618Z,78.43
2022-09-30T07:46:30.988Z,78.12
2022-09-30T07:49:01.596Z,78.43
2022-09-30T07:51:31.615Z,79.36
2022-09-30T07:54:02.255Z,79.68
2022-09-30T07:56:37.070Z,78.83
2022-09-30T07:59:17.040Z,77.81
2022-09-30T08:01:43.739Z,76.40
2022-09-30T08:04:11.934Z,75.81
2022-09-30T08:06:45.378Z,75.19
2022-09-30T08:09:13.590Z,74.67
2022-09-30T08:11:41.440Z,73.98
2022-09-30T08:14:08.088Z,72.63
2022-09-30T08:16:34.800Z,73.32
2022-09-30T08:19:02.321Z,73.28
2022-09-30T08:21:29.637Z,73.21
2022-09-30T08:23:57.360Z,72.69
2022-09-30T08:26:24.779Z,73.64
2022-09-30T08:28:51.495Z,73.00
2022-09-30T08:31:23.226Z,74.14
2022-09-30T08:33:50.574Z,73.29
2022-09-30T08:36:19.496Z,73.64
2022-09-30T08:38:46.170Z,74.42
2022-09-30T08:41:24.962Z,74.21
2022-09-30T08:44:28.253Z,74.76
2022-09-30T08:47:03.047Z,75.37
2022-09-30T08:49:54.626Z,75.77
2022-09-30T08:52:37.437Z,76.72
2022-09-30T08:55:21.063Z,76.42
2022-09-30T08:57:47.998Z,76.50
2022-09-30T09:00:17.500Z,76.45
2022-09-30T09:02:56.000Z,77.24
2022-09-30T09:05:52.591Z,76.63
2022-09-30T09:08:38.147Z,77.02
2022-09-30T09:11:17.742Z,76.05
2022-09-30T09:13:56.362Z,76.14
2022-09-30T09:16:36.993Z,75.89
2022-09-30T09:19:12.762Z,74.42
2022-09-30T09:22:00.712Z,73.26
2022-09-30T09:24:34.133Z,71.98
2022-09-30T09:27:13.242Z,71.00
2022-09-30T09:29:50.828Z,70.53
2022-09-30T09:32:18.488Z,70.57
2022-09-30T09:34:49.550Z,69.21
2022-09-30T09:37:53.593Z,67.72
2022-09-30T09:40:59.063Z,68.91
2022-09-30T09:43:40.971Z,68.97
2022-09-30T09:46:22.928Z,69.61
2022-09-30T09:49:21.000Z,70.19
2022-09-30T09:52:15.018Z,70.21
2022-09-30T09:54:43.890Z,69.91
2022-09-30T09:57:12.846Z,71.27
2022-09-30T09:59:55.754Z,71.07
2022-09-30T10:02:29.781Z,70.56
2022-09-30T10:05:11.613Z,71.20
2022-09-30T10:07:38.227Z,71.51
2022-09-30T10:10:23.457Z,71.03
2022-09-30T10:12:50.708Z,69.27
2022-09-30T10:15:27.765Z,70.40
2022-09-30T10:17:57.209Z,70.86
2022-09-30T10:20:34.773Z,68.31
2022-09-30T10:23:08.700Z,65.91
2022-09-30T10:25:35.686Z,65.53
2022-09-30T10:28:04.738Z,68.60
2022-09-30T10:30:39.006Z,68.73
2022-09-30T10:33:22.641Z,68.90
2022-09-30T10:36:11.969Z,67.89
2022-09-30T10:38:53.303Z,67.87
2022-09-30T10:41:31.271Z,64.39
2022-09-30T10:44:00.574Z,65.00
2022-09-30T10:46:31.949Z,68.33
2022-09-30T10:49:00.347Z,66.35
2022-09-30T10:51:34.144Z,65.50
2022-09-30T10:54:05.703Z,66.62
2022-09-30T10:56:42.148Z,63.92
2022-09-30T10:59:19.876Z,63.13
2022-09-30T11:01:52.617Z,64.68
2022-09-30T11:04:26.828Z,61.89
2022-09-30T11:07:00.022Z,65.56
2022-09-30T11:09:37.456Z,66.22
2022-09-30T11:12:42.111Z,65.94
2022-09-30T11:15:23.288Z,60.59
2022-09-30T11:17:55.112Z,64.99
2022-09-30T11:20:25.707Z,60.30
2022-09-30T11:23:00.711Z,57.48
2022-09-30T11:25:30.051Z,56.72
2022-09-30T11:27:58.685Z,60.00
2022-09-30T11:31:07.270Z,62.04
2022-09-30T11:33:52.649Z,62.67
2022-09-30T11:36:31.400Z,63.97
2022-09-30T11:39:19.758Z,60.41
2022-09-30T11:41:54.845Z,59.74
2022-09-30T11:44:36.174Z,56.15
2022-09-30T11:47:31.977Z,55.13
2022-09-30T11:50:20.001Z,59.17
2022-09-30T11:53:13.821Z,60.64
2022-09-30T11:56:34.671Z,61.34
2022-09-30T11:59:12.123Z,55.98
2022-09-30T12:01:48.128Z,55.84
2022-09-30T12:04:21.225Z,51.74
2022-09-30T12:07:15.181Z,55.21
2022-09-30T12:09:54.000Z,55.94
2022-09-30T12:12:20.735Z,57.23
2022-09-30T12:15:07.724Z,58.44
2022-09-30T12:17:39.287Z,59.34
2022-09-30T12:20:31.022Z,54.78
2022-09-30T12:23:24.144Z,51.97
2022-09-30T12:26:17.259Z,49.45
2022-09-30T12:29:08.620Z,50.24
2022-09-30T12:32:09.554Z,51.93
2022-09-30T12:35:03.923Z,50.79
2022-09-30T12:37:40.215Z,51.64
2022-09-30T12:40:28.522Z,55.47
2022-09-30T12:43:04.802Z,47.33
2022-09-30T12:45:36.748Z,46.33
2022-09-30T12:48:11.066Z,53.64
2022-09-30T12:50:45.358Z,56.28
2022-09-30T12:53:22.431Z,56.52
2022-09-30T12:55:49.354Z,58.35
2022-09-30T12:58:29.817Z,58.39
2022-09-30T13:01:16.620Z,58.23
2022-09-30T13:03:50.632Z,57.14
2022-09-30T13:06:21.066Z,55.15
2022-09-30T13:08:57.254Z,58.03
2022-09-30T13:11:37.443Z,55.19
2022-09-30T13:14:37.975Z,49.32
2022-09-30T13:17:07.608Z,54.88
2022-09-30T13:19:44.901Z,53.59
2022-09-30T13:22:30.194Z,53.43
2022-09-30T13:25:06.753Z,54.79
2022-09-30T13:27:46.722Z,49.51
2022-09-30T13:30:13.361Z,50.93
2022-09-30T13:32:42.632Z,49.00
2022-09-30T13:35:31.893Z,48.19
2022-09-30T13:38:13.787Z,45.76
2022-09-30T13:41:06.332Z,49.15
2022-09-30T13:43:39.175Z,49.04
2022-09-30T13:46:17.724Z,52.16
2022-09-30T13:49:00.776Z,52.56
2022-09-30T13:51:29.858Z,54.94
2022-09-30T13:54:00.300Z,57.12
2022-09-30T13:56:30.767Z,56.16
2022-09-30T13:59:15.266Z,53.34
2022-09-30T14:02:22.260Z,50.38
2022-09-30T14:05:23.537Z,47.50
2022-09-30T14:08:12.433Z,52.41
2022-09-30T14:10:57.149Z,54.88
2022-09-30T14:14:02.432Z,51.18
2022-09-30T14:16:48.838Z,56.50
2022-09-30T14:19:39.429Z,56.54
2022-09-30T14:22:07.887Z,55.77
2022-09-30T14:24:37.852Z,55.15
2022-09-30T14:27:35.761Z,58.16
2022-09-30T14:30:09.477Z,60.88
2022-09-30T14:32:50.698Z,60.78
2022-09-30T14:35:23.093Z,61.54
2022-09-30T14:38:15.357Z,63.14
2022-09-30T14:40:50.219Z,64.44
2022-09-30T14:43:20.566Z,64.78
2022-09-30T14:45:51.787Z,64.59
2022-09-30T14:48:24.234Z,64.28
2022-09-30T14:51:05.059Z,63.90
2022-09-30T14:53:39.068Z,64.14
2022-09-30T14:56:23.364Z,63.98
2022-09-30T14:58:53.775Z,63.34
2022-09-30T15:01:25.989Z,63.29
2022-09-30T15:03:56.576Z,62.35
2022-09-30T15:06:26.046Z,62.65
2022-09-30T15:09:01.084Z,63.70
2022-09-30T15:11:28.938Z,64.00
2022-09-30T15:14:14.976Z,63.93
2022-09-30T15:16:50.691Z,63.34
2022-09-30T15:19:22.759Z,63.13
2022-09-30T15:21:52.021Z,63.10
2022-09-30T15:24:20.520Z,59.91
2022-09-30T15:26:49.173Z,58.53
2022-09-30T15:29:16.735Z,57.55
2022-09-30T15:31:57.328Z,54.68
2022-09-30T15:34:25.695Z,56.62
2022-09-30T15:37:11.779Z,56.80
2022-09-30T15:40:05.095Z,58.74
2022-09-30T15:42:49.415Z,58.62
2022-09-30T15:45:35.835Z,57.91
2022-09-30T15:48:06.680Z,57.65
2022-09-30T15:50:38.425Z,57.86
2022-09-30T15:53:13.057Z,59.07
2022-09-30T15:55:44.403Z,58.73
2022-09-30T15:58:29.727Z,58.07
2022-09-30T16:01:09.248Z,58.07
2022-09-30T16:03:36.144Z,57.85
2022-09-30T16:06:43.224Z,59.02
2022-09-30T16:09:31.701Z,59.81
2022-09-30T16:12:13.421Z,60.89
2022-09-30T16:15:00.143Z,62.06
2022-09-30T16:17:39.535Z,62.84
2022-09-30T16:20:22.562Z,63.73
2022-09-30T16:22:56.527Z,64.25
2022-09-30T16:25:32.938Z,65.05
2022-09-30T16:27:59.706Z,65.56
2022-09-30T16:30:26.935Z,65.81
2022-09-30T16:32:58.201Z,66.42
2022-09-30T16:35:27.065Z,67.08
2022-09-30T16:38:06.487Z,67.29
2022-09-30T16:40:35.803Z,67.85
2022-09-30T16:43:07.521Z,68.13
2022-09-30T16:45:35.594Z,68.24
2022-09-30T16:48:09.170Z,68.72
2022-09-30T16:50:41.638Z,69.00
2022-09-30T16:53:10.682Z,69.15
2022-09-30T16:55:37.530Z,69.40
2022-09-30T16:58:05.554Z,69.64
2022-09-30T17:00:33.019Z,69.91
2022-09-30T17:02:59.735Z,70.13
2022-09-30T17:05:26.909Z,70.31
2022-09-30T17:07:58.897Z,70.64
2022-09-30T17:10:33.283Z,70.70
2022-09-30T17:13:00.433Z,71.03
2022-09-30T17:15:28.919Z,71.29
2022-09-30T17:17:55.848Z,71.69
2022-09-30T17:20:22.620Z,71.98
2022-09-30T17:22:50.158Z,71.93
2022-09-30T17:25:17.346Z,72.07
2022-09-30T17:27:48.953Z,72.06
2022-09-30T17:30:16.175Z,72.31
2022-09-30T17:32:42.788Z,72.42
2022-09-30T17:35:09.550Z,72.79
2022-09-30T17:37:38.532Z,73.11
2022-09-30T17:40:26.409Z,73.26
2022-09-30T17:43:11.231Z,72.97
2022-09-30T17:45:40.283Z,73.09
2022-09-30T17:48:11.870Z,72.95
2022-09-30T17:50:46.795Z,73.40
2022-09-30T17:53:14.284Z,73.57
2022-09-30T17:55:41.713Z,73.98
2022-09-30T17:58:09.378Z,73.96
2022-09-30T18:00:36.543Z,74.35
2022-09-30T18:03:03.397Z,74.18
2022-09-30T18:05:31.911Z,74.31
2022-09-30T18:07:59.018Z,74.42
2022-09-30T18:10:26.247Z,74.43
2022-09-30T18:12:54.284Z,74.61
2022-09-30T18:15:22.332Z,74.71
2022-09-30T18:17:49.023Z,74.70
2022-09-30T18:20:17.191Z,74.62
2022-09-30T18:22:45.310Z,74.49
2022-09-30T18:25:20.582Z,74.64
2022-09-30T18:27:51.590Z,74.96
2022-09-30T18:30:20.191Z,74.75
2022-09-30T18:32:49.445Z,74.77
2022-09-30T18:35:18.542Z,74.80
2022-09-30T18:37:47.314Z,75.26
2022-09-30T18:40:16.782Z,75.38
2022-09-30T18:42:44.379Z,75.63
2022-09-30T18:45:12.688Z,75.57
2022-09-30T18:47:42.364Z,75.74
2022-09-30T18:50:13.055Z,75.75
2022-09-30T18:52:40.742Z,75.75
2022-09-30T18:55:09.754Z,76.92
2022-09-30T18:57:36.394Z,77.39
2022-09-30T19:00:03.881Z,77.27
2022-09-30T19:02:32.434Z,77.18
2022-09-30T19:04:59.934Z,78.12
2022-09-30T19:07:27.124Z,78.10
2022-09-30T19:09:53.761Z,77.95
2022-09-30T19:12:20.922Z,77.69
2022-09-30T19:14:47.899Z,77.35
2022-09-30T19:17:14.587Z,77.49
2022-09-30T19:19:41.439Z,77.82
2022-09-30T19:22:08.586Z,78.46
2022-09-30T19:24:35.999Z,78.17
2022-09-30T19:27:02.972Z,77.83
2022-09-30T19:29:29.619Z,78.59
2022-09-30T19:31:57.542Z,78.60
2022-09-30T19:34:31.783Z,79.17
2022-09-30T19:36:59.952Z,79.10
2022-09-30T19:39:38.085Z,78.81
2022-09-30T19:42:08.571Z,78.31
2022-09-30T19:44:36.622Z,78.34
2022-09-30T19:47:03.247Z,78.18
2022-09-30T19:49:31.171Z,78.68
2022-09-30T19:51:57.776Z,79.48
2022-09-30T19:54:37.266Z,79.53
2022-09-30T19:57:06.744Z,78.98
2022-09-30T19:59:34.010Z,78.93
2022-09-30T20:02:01.251Z,79.05
2022-09-30T20:04:29.102Z,78.91
2022-09-30T20:06:56.031Z,79.02
2022-09-30T20:09:22.704Z,78.88
2022-09-30T20:11:49.280Z,78.79
2022-09-30T20:14:34.292Z,79.12
2022-09-30T20:17:00.915Z,79.29
2022-09-30T20:19:27.518Z,79.29
2022-09-30T20:21:54.562Z,79.17
2022-09-30T20:24:21.465Z,79.32
2022-09-30T20:26:48.373Z,79.47
2022-09-30T20:29:15.193Z,79.76
2022-09-30T20:31:42.879Z,80.13
2022-09-30T20:34:13.511Z,80.50
2022-09-30T20:36:40.610Z,80.69
2022-09-30T20:39:07.968Z,80.69
2022-09-30T20:41:36.889Z,80.57
2022-09-30T20:44:04.640Z,80.42
2022-09-30T20:46:32.097Z,80.52
2022-09-30T20:48:59.882Z,80.28
2022-09-30T20:51:27.576Z,80.25
2022-09-30T20:53:55.541Z,80.19
2022-09-30T20:56:23.172Z,80.09
2022-09-30T20:58:50.274Z,80.64
2022-09-30T21:01:19.343Z,80.65
2022-09-30T21:03:51.427Z,80.59
2022-09-30T21:06:20.678Z,80.61
2022-09-30T21:08:48.994Z,80.79
2022-09-30T21:11:15.595Z,81.29
2022-09-30T21:13:43.428Z,80.87
2022-09-30T21:16:12.100Z,80.61
2022-09-30T21:18:38.726Z,80.48
2022-09-30T21:21:05.872Z,81.06
2022-09-30T21:23:34.148Z,80.98
2022-09-30T21:26:05.570Z,81.52
2022-09-30T21:28:32.714Z,81.91
2022-09-30T21:30:59.803Z,81.62
2022-09-30T21:33:26.422Z,81.59
2022-09-30T21:36:02.520Z,81.84
2022-09-30T21:38:29.631Z,81.91
2022-09-30T21:41:01.438Z,81.60
2022-09-30T21:43:32.158Z,82.28
2022-09-30T21:46:05.481Z,82.45
2022-09-30T21:48:35.274Z,82.25
2022-09-30T21:51:02.782Z,82.25
2022-09-30T21:53:29.564Z,82.47
2022-09-30T21:55:57.491Z,82.70
2022-09-30T21:58:25.379Z,82.33
2022-09-30T22:00:53.303Z,82.51
2022-09-30T22:03:21.386Z,82.76
2022-09-30T22:05:55.055Z,82.59
2022-09-30T22:08:22.317Z,82.29
2022-09-30T22:10:51.113Z,81.71
2022-09-30T22:13:18.772Z,81.27
2022-09-30T22:15:46.866Z,81.10
2022-09-30T22:18:18.218Z,80.27
2022-09-30T22:20:45.143Z,80.65
2022-09-30T22:23:11.853Z,81.12
2022-09-30T22:25:38.836Z,80.77
2022-09-30T22:28:05.562Z,80.40
2022-09-30T22:30:32.531Z,80.36
2022-09-30T22:33:17.786Z,79.86
2022-09-30T22:36:03.025Z,79.33
2022-09-30T22:38:30.091Z,78.90
2022-09-30T22:40:59.376Z,78.84
2022-09-30T22:43:26.702Z,78.82
2022-09-30T22:46:08.192Z,79.35
2022-09-30T22:48:35.384Z,79.56
2022-09-30T22:51:02.146Z,79.62
2022-09-30T22:53:29.254Z,79.16
2022-09-30T22:55:58.601Z,78.83
2022-09-30T22:58:26.410Z,78.77
2022-09-30T23:00:58.688Z,78.59
2022-09-30T23:03:25.903Z,78.40
2022-09-30T23:05:53.444Z,78.52
2022-09-30T23:10:49.914Z,78.58
2022-09-30T23:13:18.715Z,79.44
2022-09-30T23:15:45.381Z,79.60
2022-09-30T23:18:11.990Z,79.72
2022-09-30T23:20:40.866Z,80.21
2022-09-30T23:23:07.750Z,80.19
2022-09-30T23:25:34.803Z,80.30
2022-09-30T23:28:01.675Z,80.10
2022-09-30T23:30:28.346Z,80.14
2022-09-30T23:32:55.017Z,80.92
2022-09-30T23:35:21.596Z,80.92
2022-09-30T23:37:50.113Z,81.49
2022-09-30T23:40:16.702Z,81.51
2022-09-30T23:42:43.305Z,81.51
2022-09-30T23:45:10.329Z,81.40
2022-09-30T23:47:37.450Z,81.37
2022-09-30T23:50:04.237Z,81.17
2022-09-30T23:52:30.821Z,80.99
2022-09-30T23:54:57.436Z,81.35
2022-09-30T23:57:24.098Z,81.91
2022-09-30T23:59:50.718Z,81.56
